Time;durP1;ratioP1;P1;durP2;ratioP2;P2;SDS_P1;SDS_P2;PMS_P1;PMS_P2;Temp;Humidity;BMP_temperature;BMP_pressure;BME280_temperature;BME280_humidity;BME280_pressure;Samples;Min_cycle;Max_cycle;Signal;HPM_P1;HPM_P2
2021/06/24 04:17:41;;;;;;;6.82;3.10;;;;;;;15.41;100.00;98842.13;4913959;29;20493;-73
2021/06/24 04:20:07;;;;;;;4.07;3.45;;;;;;;15.63;100.00;98840.47;4915350;29;20087;-70
2021/06/24 04:22:33;;;;;;;6.43;3.55;;;;;;;15.74;100.00;98836.59;4916943;29;20034;-70
2021/06/24 04:24:58;;;;;;;9.52;4.05;;;;;;;15.77;100.00;98837.34;4918751;29;20024;-70
2021/06/24 04:27:23;;;;;;;5.53;4.10;;;;;;;15.89;100.00;98846.44;4918485;29;20036;-70
2021/06/24 04:29:49;;;;;;;3.67;3.38;;;;;;;15.86;100.00;98836.13;4918829;29;20059;-70
2021/06/24 04:32:14;;;;;;;5.28;3.90;;;;;;;16.04;100.00;98837.16;4918420;29;20020;-70
2021/06/24 04:34:39;;;;;;;6.35;3.67;;;;;;;16.03;100.00;98840.69;4918508;29;20028;-70
2021/06/24 04:37:05;;;;;;;4.45;3.63;;;;;;;16.17;100.00;98847.09;4918322;29;20553;-70
2021/06/24 04:39:30;;;;;;;3.88;3.47;;;;;;;16.16;100.00;98839.31;4918322;29;20020;-73
2021/06/24 04:41:56;;;;;;;5.40;3.60;;;;;;;16.30;100.00;98836.16;4918538;29;20028;-73
2021/06/24 04:44:21;;;;;;;3.97;3.40;;;;;;;16.41;100.00;98837.41;4918110;29;20366;-73
2021/06/24 04:46:47;;;;;;;4.57;4.18;;;;;;;16.50;100.00;98837.94;4918053;29;20068;-71
2021/06/24 04:49:12;;;;;;;4.75;4.00;;;;;;;16.51;99.19;98835.25;4918045;29;20376;-70
2021/06/24 04:51:37;;;;;;;7.10;4.40;;;;;;;16.53;99.29;98838.66;4918104;29;20063;-70
2021/06/24 04:54:03;;;;;;;4.40;3.53;;;;;;;16.63;98.74;98829.53;4918134;29;20026;-70
2021/06/24 04:56:29;;;;;;;7.15;3.33;;;;;;;16.72;99.64;98828.31;4917850;29;20047;-71
2021/06/24 04:58:54;;;;;;;6.10;3.85;;;;;;;16.93;100.00;98843.13;4918046;29;20023;-70
2021/06/24 05:01:19;;;;;;;3.50;3.25;;;;;;;17.23;96.12;98844.47;4917990;29;20039;-70
2021/06/24 05:03:45;;;;;;;6.50;3.90;;;;;;;16.91;96.04;98838.84;4917926;29;20082;-70
2021/06/24 05:06:11;;;;;;;4.03;3.67;;;;;;;17.24;97.27;98831.31;4917464;29;20020;-70
2021/06/24 05:08:37;;;;;;;6.18;3.97;;;;;;;17.38;94.54;98834.16;4917877;29;20031;-70
2021/06/24 05:11:04;;;;;;;5.82;3.65;;;;;;;17.29;95.43;98836.34;4916602;29;20095;-70
2021/06/24 05:13:30;;;;;;;6.25;3.25;;;;;;;17.42;95.12;98834.88;4917699;29;20107;-70
2021/06/24 05:15:55;;;;;;;6.00;3.10;;;;;;;17.34;93.56;98847.47;4917556;29;20139;-70
2021/06/24 05:18:21;;;;;;;3.47;2.95;;;;;;;16.89;94.77;98830.22;4917641;29;20035;-73
2021/06/24 05:20:47;;;;;;;3.95;2.72;;;;;;;17.01;95.62;98834.06;4917538;29;20441;-73
2021/06/24 05:23:16;;;;;;;5.00;2.58;;;;;;;17.25;96.14;98829.53;4917558;29;20057;-74
2021/06/24 05:25:43;;;;;;;3.20;2.10;;;;;;;17.37;91.31;98836.84;4917393;29;20028;-73
2021/06/24 05:28:09;;;;;;;4.82;2.38;;;;;;;17.20;93.36;98830.59;4917420;29;20047;-71
2021/06/24 05:30:35;;;;;;;5.40;2.28;;;;;;;17.08;94.36;98836.38;4917490;29;20032;-70
2021/06/24 05:33:00;;;;;;;3.78;2.50;;;;;;;17.19;93.40;98834.13;4916833;29;20032;-70
2021/06/24 05:35:26;;;;;;;4.35;3.15;;;;;;;17.05;94.73;98841.72;4916839;29;20051;-71
2021/06/24 05:37:51;;;;;;;5.70;3.10;;;;;;;16.95;95.83;98829.97;4917422;29;20035;-71
2021/06/24 05:40:17;;;;;;;3.10;2.85;;;;;;;16.90;96.22;98830.16;4917291;29;20144;-70
2021/06/24 05:42:42;;;;;;;4.80;2.90;;;;;;;17.02;96.35;98831.41;4917298;29;20098;-70
2021/06/24 05:45:08;;;;;;;4.78;2.80;;;;;;;16.85;96.90;98828.66;4917104;29;20032;-73
2021/06/24 05:47:33;;;;;;;4.55;2.67;;;;;;;16.84;97.35;98842.66;4917052;29;20032;-70
2021/06/24 05:49:59;;;;;;;3.53;2.97;;;;;;;16.85;96.50;98844.34;4916994;29;20091;-70
2021/06/24 05:52:25;;;;;;;7.32;4.90;;;;;;;16.81;98.08;98848.00;4917088;29;20036;-71
2021/06/24 05:54:50;;;;;;;6.10;4.07;;;;;;;16.83;98.62;98851.44;4917002;29;20035;-71
2021/06/24 05:57:15;;;;;;;5.80;4.13;;;;;;;16.89;98.54;98851.16;4916850;29;20032;-74
2021/06/24 05:59:41;;;;;;;9.23;4.03;;;;;;;16.68;98.05;98855.47;4916832;29;20465;-73
2021/06/24 06:02:06;;;;;;;8.52;3.92;;;;;;;16.62;98.08;98848.75;4916964;29;20383;-73
2021/06/24 06:04:32;;;;;;;8.88;4.65;;;;;;;16.72;98.83;98854.47;4917076;29;20512;-70
2021/06/24 06:06:57;;;;;;;7.90;4.18;;;;;;;16.95;97.23;98853.50;4916605;29;20027;-74
2021/06/24 06:09:22;;;;;;;4.72;3.33;;;;;;;16.94;95.89;98846.59;4915620;29;20056;-71
2021/06/24 06:11:48;;;;;;;7.80;3.85;;;;;;;17.03;95.51;98843.56;4916192;29;20056;-73
2021/06/24 06:14:13;;;;;;;6.55;3.60;;;;;;;16.99;95.28;98842.00;4914964;29;20103;-73
2021/06/24 06:16:38;;;;;;;5.07;4.00;;;;;;;17.34;95.28;98842.22;4914496;29;20390;-73
2021/06/24 06:19:04;;;;;;;4.80;3.25;;;;;;;17.30;93.30;98851.97;4914667;29;20040;-73
2021/06/24 06:21:31;;;;;;;4.10;2.90;;;;;;;17.16;94.05;98854.34;4914694;29;20114;-73
2021/06/24 06:23:58;;;;;;;3.20;2.83;;;;;;;17.24;94.63;98851.41;4914715;29;20032;-73
2021/06/24 06:26:25;;;;;;;6.72;2.75;;;;;;;17.67;91.53;98858.19;4914507;29;20036;-73
2021/06/24 06:28:51;;;;;;;3.28;2.67;;;;;;;17.97;90.61;98858.59;4916181;29;20067;-73
2021/06/24 06:31:18;;;;;;;3.50;2.78;;;;;;;18.19;89.87;98848.78;4916343;29;20032;-73
2021/06/24 06:33:43;;;;;;;4.53;2.60;;;;;;;18.38;88.12;98855.78;4916372;29;20028;-73
2021/06/24 06:36:08;;;;;;;2.55;2.35;;;;;;;18.34;85.84;98860.31;4915983;29;20020;-73
2021/06/24 06:38:34;;;;;;;5.18;2.90;;;;;;;18.44;86.64;98856.31;4916275;29;20028;-73
2021/06/24 06:40:59;;;;;;;5.50;2.50;;;;;;;18.55;86.66;98854.94;4916268;29;20028;-73
2021/06/24 06:43:26;;;;;;;3.10;2.17;;;;;;;18.73;85.89;98860.16;4916243;29;20426;-73
2021/06/24 06:45:51;;;;;;;3.67;2.60;;;;;;;18.92;82.60;98859.25;4915676;29;20478;-73
2021/06/24 06:48:17;;;;;;;2.60;2.40;;;;;;;19.24;82.93;98855.81;4915933;29;20059;-73
2021/06/24 06:50:43;;;;;;;7.47;2.40;;;;;;;19.46;80.38;98858.16;4915965;29;20035;-73
2021/06/24 06:53:08;;;;;;;3.35;2.35;;;;;;;19.24;82.76;98845.31;4916252;29;20036;-73
2021/06/24 06:55:34;;;;;;;5.55;1.95;;;;;;;19.21;83.93;98845.47;4915904;29;20028;-73
2021/06/24 06:58:00;;;;;;;3.30;2.13;;;;;;;19.72;82.00;98850.69;4915887;29;20474;-73
2021/06/24 07:00:28;;;;;;;3.92;1.95;;;;;;;19.40;81.54;98849.75;4915892;29;20031;-73
2021/06/24 07:02:54;;;;;;;2.08;1.77;;;;;;;19.60;81.74;98846.94;4915899;29;20055;-73
2021/06/24 07:05:19;;;;;;;3.67;2.22;;;;;;;19.99;78.16;98843.06;4915705;29;20024;-73
2021/06/24 07:07:45;;;;;;;4.22;2.13;;;;;;;19.79;79.98;98840.69;4915696;29;20040;-74
2021/06/24 07:10:11;;;;;;;2.92;2.47;;;;;;;19.74;80.36;98849.69;4915911;29;20028;-73
2021/06/24 07:12:36;;;;;;;5.30;2.30;;;;;;;19.71;79.35;98844.56;4915812;29;20455;-73
2021/06/24 07:15:02;;;;;;;2.38;2.00;;;;;;;20.00;78.32;98850.03;4915907;29;20497;-73
2021/06/24 07:17:27;;;;;;;7.30;1.80;;;;;;;22.35;72.28;98840.34;4915292;29;20036;-73
2021/06/24 07:19:53;;;;;;;1.90;1.70;;;;;;;24.60;61.60;98840.53;4915983;29;20039;-74
2021/06/24 07:22:19;;;;;;;1.75;1.65;;;;;;;26.22;54.96;98838.56;4915735;29;20103;-74
2021/06/24 07:24:44;;;;;;;1.73;1.50;;;;;;;25.84;55.45;98846.94;4915684;29;20108;-74
2021/06/24 07:27:10;;;;;;;5.95;1.40;;;;;;;27.32;49.96;98849.78;4915320;29;20028;-75
2021/06/24 07:29:35;;;;;;;1.92;1.42;;;;;;;25.62;55.86;98858.38;4915763;29;20042;-76
2021/06/24 07:32:01;;;;;;;4.20;1.80;;;;;;;23.59;61.71;98845.16;4907651;29;20409;-73
2021/06/24 07:34:26;;;;;;;2.83;1.70;;;;;;;25.06;58.64;98834.44;4909522;29;20111;-72
2021/06/24 07:36:52;;;;;;;2.67;1.30;;;;;;;27.92;47.98;98840.97;4922346;29;20034;-72
2021/06/24 07:39:17;;;;;;;3.58;1.30;;;;;;;26.87;49.76;98837.59;4918251;29;20501;-72
2021/06/24 07:41:42;;;;;;;2.47;1.25;;;;;;;27.89;48.47;98841.25;4900068;29;20032;-72
2021/06/24 07:44:08;;;;;;;6.13;1.30;;;;;;;29.02;46.79;98840.00;4908605;29;20041;-72
2021/06/24 07:46:33;;;;;;;3.70;1.55;;;;;;;27.44;48.21;98854.06;4906446;29;20103;-72
2021/06/24 07:48:59;;;;;;;3.00;1.50;;;;;;;25.92;51.70;98860.47;4915441;29;20035;-72
2021/06/24 07:51:24;;;;;;;4.60;1.95;;;;;;;22.61;61.56;98867.66;4916116;29;20040;-72
2021/06/24 07:53:50;;;;;;;1.83;1.52;;;;;;;22.65;62.58;98858.59;4900970;29;20031;-72
2021/06/24 07:56:15;;;;;;;4.40;1.27;;;;;;;22.89;60.76;98856.16;4907638;29;20025;-72
2021/06/24 07:58:41;;;;;;;1.85;1.65;;;;;;;22.29;63.18;98852.16;4910796;29;20031;-72
2021/06/24 08:01:07;;;;;;;1.67;1.52;;;;;;;22.40;65.82;98853.25;4904459;29;20028;-72
2021/06/24 08:03:34;;;;;;;4.53;1.60;;;;;;;22.61;63.58;98841.25;4915478;29;20039;-72
2021/06/24 08:06:04;;;;;;;3.40;1.58;;;;;;;23.08;62.49;98843.38;4916269;29;20079;-72
2021/06/24 08:08:29;;;;;;;;;;;;;;;24.15;60.29;98845.59;4908261;29;20402;-75
2021/06/24 08:10:57;;;;;;;1.30;1.20;;;;;;;24.44;59.51;98847.94;4912958;29;19918;-75
2021/06/24 08:13:24;;;;;;;5.97;1.92;;;;;;;23.81;59.78;98855.97;4902958;29;20036;-72
2021/06/24 08:15:51;;;;;;;5.53;1.60;;;;;;;24.14;60.23;98861.59;4913860;29;20036;-74
2021/06/24 08:18:16;;;;;;;1.33;1.23;;;;;;;24.03;57.83;98862.34;4907608;29;20517;-74
2021/06/24 08:20:42;;;;;;;2.17;1.48;;;;;;;24.24;56.34;98858.16;4907286;29;20056;-74
2021/06/24 08:23:08;;;;;;;1.33;1.20;;;;;;;23.49;57.87;98865.28;4914357;29;20032;-72
2021/06/24 08:25:33;;;;;;;1.85;1.40;;;;;;;24.27;55.71;98857.09;4912342;29;20094;-70
2021/06/24 08:27:58;;;;;;;1.48;1.38;;;;;;;26.07;51.54;98859.25;4912753;29;20028;-69
2021/06/24 08:30:24;;;;;;;1.20;1.10;;;;;;;27.24;48.01;98850.47;4908295;29;20438;-69
2021/06/24 08:32:49;;;;;;;5.47;1.30;;;;;;;28.38;44.50;98863.56;4905741;29;20064;-69
2021/06/24 08:35:16;;;;;;;3.72;0.90;;;;;;;28.09;44.75;98867.94;4913592;29;20024;-69
2021/06/24 08:37:42;;;;;;;1.60;1.10;;;;;;;27.82;45.32;98872.06;4902579;29;20035;-71
2021/06/24 08:40:09;;;;;;;4.88;1.77;;;;;;;27.39;46.84;98870.44;4912769;29;20024;-72
2021/06/24 08:42:35;;;;;;;1.10;1.00;;;;;;;28.64;42.25;98873.69;4911233;29;20066;-72
2021/06/24 08:45:03;;;;;;;3.38;1.23;;;;;;;28.53;43.75;98871.13;4904447;29;20071;-72
2021/06/24 08:47:29;;;;;;;5.15;1.00;;;;;;;29.96;42.53;98879.06;4914524;29;20549;-69
2021/06/24 08:49:59;;;;;;;4.60;1.02;;;;;;;30.76;37.93;98875.78;4904508;29;20024;-70
2021/06/24 08:52:25;;;;;;;4.45;0.90;;;;;;;26.96;43.12;98888.31;4912574;29;20035;-69
2021/06/24 08:54:51;;;;;;;1.42;1.00;;;;;;;29.14;41.15;98878.88;4909620;29;20514;-69
2021/06/24 08:57:17;;;;;;;1.50;1.08;;;;;;;28.22;42.57;98879.19;4909156;29;20096;-69
2021/06/24 08:59:43;;;;;;;1.98;1.00;;;;;;;25.71;49.06;98884.19;4908918;29;20060;-69
2021/06/24 09:02:13;;;;;;;1.33;1.05;;;;;;;25.57;48.46;98881.78;4909573;29;20070;-69
2021/06/24 09:04:44;;;;;;;4.88;1.10;;;;;;;29.94;40.15;98877.53;4909223;29;20043;-69
2021/06/24 09:07:12;;;;;;;1.45;1.10;;;;;;;28.53;43.76;98879.13;4909211;29;20028;-69
2021/06/24 09:09:48;;;;;;;1.55;1.27;;;;;;;28.71;42.59;98877.47;4908639;29;20066;-69
2021/06/24 09:12:13;;;;;;;1.23;1.08;;;;;;;27.11;45.94;98882.59;4909125;29;20040;-70
2021/06/24 09:14:43;;;;;;;1.10;1.00;;;;;;;26.64;47.96;98889.16;4909038;29;20032;-70
2021/06/24 09:17:10;;;;;;;7.32;1.30;;;;;;;26.51;49.09;98888.50;4908764;29;20036;-69
2021/06/24 09:19:42;;;;;;;2.00;1.17;;;;;;;26.00;48.29;98895.19;4909054;29;20537;-69
2021/06/24 09:22:13;;;;;;;1.40;1.30;;;;;;;25.13;48.18;98891.34;4909103;29;20047;-69
2021/06/24 09:24:41;;;;;;;1.52;1.17;;;;;;;26.71;45.61;98894.84;4908999;29;20043;-72
2021/06/24 09:27:28;;;;;;;1.63;1.20;;;;;;;26.38;45.96;98900.09;4908837;29;20044;-72
2021/06/24 09:30:06;;;;;;;4.43;1.25;;;;;;;26.17;47.93;98896.53;4908906;29;20040;-72
2021/06/24 09:32:36;;;;;;;2.08;1.42;;;;;;;22.59;54.33;98909.19;4908953;29;20031;-71
2021/06/24 09:35:03;;;;;;;1.60;1.50;;;;;;;23.63;54.76;98896.06;4908644;29;20024;-74
2021/06/24 09:37:49;;;;;;;2.25;1.10;;;;;;;24.15;52.67;98901.19;4908480;29;20711;-69
2021/06/24 09:40:15;;;;;;;1.80;1.50;;;;;;;25.55;48.40;98889.03;4908434;29;20084;-69
2021/06/24 09:42:41;;;;;;;1.98;1.20;;;;;;;29.05;41.23;98882.38;4908466;29;20040;-70
2021/06/24 09:45:08;;;;;;;1.15;0.93;;;;;;;30.48;38.85;98883.00;4908204;29;20020;-73
2021/06/24 09:47:33;;;;;;;1.85;1.10;;;;;;;31.41;36.69;98877.16;4908165;29;20108;-73
2021/06/24 09:50:09;;;;;;;4.97;1.30;;;;;;;31.81;34.98;98875.69;4907740;29;20450;-73
2021/06/24 09:52:35;;;;;;;1.13;1.00;;;;;;;31.28;37.97;98884.75;4908300;29;20032;-70
2021/06/24 09:55:13;;;;;;;2.30;1.55;;;;;;;30.07;40.38;98885.19;4908252;29;20032;-70
2021/06/24 09:57:39;;;;;;;1.57;1.17;;;;;;;28.61;42.72;98890.78;4908035;29;20028;-73
2021/06/24 10:00:25;;;;;;;2.30;1.30;;;;;;;29.65;40.85;98881.16;4908183;29;20042;-73
2021/06/24 10:03:08;;;;;;;11.68;8.95;;;;;;;31.63;35.85;98880.31;4908097;29;20446;-73
2021/06/24 10:05:36;;;;;;;3.00;2.45;;;;;;;29.88;39.83;98892.31;4907971;29;20554;-73
2021/06/24 10:08:02;;;;;;;1.63;1.10;;;;;;;28.74;41.99;98879.84;4906591;29;20462;-70
2021/06/24 10:10:28;;;;;;;1.52;1.23;;;;;;;27.24;47.06;98877.06;4907980;29;20044;-70
2021/06/24 10:12:53;;;;;;;3.90;2.80;;;;;;;27.01;46.96;98870.16;4907945;29;20036;-70
2021/06/24 10:15:19;;;;;;;1.95;1.30;;;;;;;26.25;47.52;98878.13;4907842;29;20480;-70
2021/06/24 10:17:44;;;;;;;1.45;1.20;;;;;;;25.73;48.47;98876.97;4907791;29;20039;-70
2021/06/24 10:20:11;;;;;;;3.92;2.53;;;;;;;25.52;48.53;98876.00;4906219;29;20171;-73
2021/06/24 10:22:39;;;;;;;3.58;3.03;;;;;;;25.65;48.65;98874.06;4907749;29;20103;-73
2021/06/24 10:25:15;;;;;;;7.55;1.42;;;;;;;25.89;47.30;98872.16;4907647;29;20035;-73
2021/06/24 10:27:44;;;;;;;1.42;1.33;;;;;;;28.93;42.07;98858.50;4907715;29;20401;-70
2021/06/24 10:30:10;;;;;;;2.20;1.20;;;;;;;30.19;38.76;98862.66;4908242;29;20430;-72
2021/06/24 10:32:36;;;;;;;2.53;1.40;;;;;;;30.01;38.72;98877.75;4907909;29;20750;-73
2021/06/24 10:35:23;;;;;;;1.88;1.27;;;;;;;29.04;41.12;98864.69;4906987;29;20024;-69
2021/06/24 10:37:50;;;;;;;4.28;1.20;;;;;;;27.60;42.48;98869.56;4907910;29;20024;-69
2021/06/24 10:40:31;;;;;;;1.00;1.00;;;;;;;26.25;45.59;98877.28;4907753;29;20031;-72
2021/06/24 10:42:59;;;;;;;1.95;1.13;;;;;;;25.78;47.34;98869.53;4907568;29;20032;-73
2021/06/24 10:45:25;;;;;;;1.30;1.20;;;;;;;25.27;48.88;98864.63;4907323;29;20035;-70
2021/06/24 10:47:51;;;;;;;1.63;1.17;;;;;;;26.02;47.83;98853.47;4907387;29;20058;-69
2021/06/24 10:50:29;;;;;;;2.65;1.23;;;;;;;26.00;49.49;98857.19;4906301;29;20539;-70
2021/06/24 10:52:55;;;;;;;1.63;1.20;;;;;;;25.82;50.51;98854.19;4907679;29;20062;-69
2021/06/24 10:55:36;;;;;;;1.48;1.33;;;;;;;24.92;49.09;98859.34;4905988;29;20763;-69
2021/06/24 10:58:28;;;;;;;2.90;1.10;;;;;;;25.80;48.44;98856.97;4907152;29;20035;-73
2021/06/24 11:00:55;;;;;;;3.28;1.25;;;;;;;25.94;48.79;98847.06;4907338;29;20035;-72
2021/06/24 11:03:26;;;;;;;1.08;0.93;;;;;;;27.01;45.52;98830.25;4907297;29;20071;-72
2021/06/24 11:05:54;;;;;;;2.33;1.02;;;;;;;26.71;43.91;98826.56;4907085;29;20401;-71
2021/06/24 11:08:27;;;;;;;1.00;0.90;;;;;;;27.60;46.19;98825.13;4907046;29;20044;-71
2021/06/24 11:10:54;;;;;;;1.20;1.00;;;;;;;29.31;40.17;98819.41;4907251;29;20082;-72
2021/06/24 11:13:38;;;;;;;1.20;0.90;;;;;;;29.11;38.88;98828.47;4906949;29;20043;-72
2021/06/24 11:16:09;;;;;;;1.52;1.10;;;;;;;28.89;37.80;98825.09;4906897;29;20087;-71
2021/06/24 11:18:34;;;;;;;0.90;0.90;;;;;;;28.65;39.69;98817.53;4907308;29;20402;-71
2021/06/24 11:21:01;;;;;;;1.10;1.10;;;;;;;28.91;41.86;98831.13;4907336;29;20031;-72
2021/06/24 11:23:37;;;;;;;2.25;0.73;;;;;;;30.05;36.28;98828.38;4906937;29;20280;-72
2021/06/24 11:26:12;;;;;;;1.08;0.95;;;;;;;31.54;34.12;98820.47;4906982;29;20094;-72
2021/06/24 11:28:47;;;;;;;2.58;1.17;;;;;;;31.23;36.24;98817.41;4906986;29;20040;-71
2021/06/24 11:31:14;;;;;;;2.97;1.20;;;;;;;29.88;38.74;98811.31;4907013;29;20023;-71
2021/06/24 11:33:50;;;;;;;1.25;1.15;;;;;;;28.31;40.64;98809.06;4910985;29;20032;-71
2021/06/24 11:36:17;;;;;;;1.10;0.90;;;;;;;26.84;42.18;98813.09;4910609;29;20024;-71
2021/06/24 11:38:48;;;;;;;0.88;0.88;;;;;;;26.18;44.93;98807.06;4911121;29;20127;-71
2021/06/24 11:41:19;;;;;;;0.80;0.80;;;;;;;25.47;46.86;98812.66;4910824;29;20468;-71
2021/06/24 11:44:07;;;;;;;2.55;1.13;;;;;;;25.51;48.19;98818.59;4910749;29;20036;-71
2021/06/24 11:46:36;;;;;;;1.45;0.95;;;;;;;25.40;47.41;98815.94;4910637;29;20024;-72
2021/06/24 11:49:25;;;;;;;7.80;6.10;;;;;;;26.37;47.94;98801.91;4910893;29;20032;-72
2021/06/24 12:03:07;;;;;;;2.28;0.90;;;;;;;26.87;41.16;98803.00;4910653;29;20715;-72
2021/06/24 12:05:35;;;;;;;1.00;0.90;;;;;;;26.92;42.83;98800.81;4910338;29;20040;-72
2021/06/24 12:08:00;;;;;;;2.88;0.77;;;;;;;25.97;43.08;98804.34;4910164;29;21130;-72
2021/06/24 12:10:26;;;;;;;1.25;0.80;;;;;;;25.59;42.96;98801.09;4910274;29;20047;-72
2021/06/24 12:12:51;;;;;;;1.63;0.95;;;;;;;25.28;44.85;98797.34;4908981;29;20036;-72
2021/06/24 12:15:17;;;;;;;1.15;1.05;;;;;;;25.43;45.34;98794.44;4910048;29;20034;-72
2021/06/24 12:17:43;;;;;;;0.82;0.82;;;;;;;24.83;45.90;98797.25;4910178;29;20043;-71
2021/06/24 12:20:23;;;;;;;2.80;0.93;;;;;;;24.96;47.48;98798.97;4910133;29;20545;-72
2021/06/24 12:22:59;;;;;;;1.75;1.00;;;;;;;24.84;48.89;98798.09;4910119;29;20040;-72
2021/06/24 12:25:27;;;;;;;2.05;0.80;;;;;;;24.60;48.40;98806.09;4909800;29;20086;-72
2021/06/24 12:27:57;;;;;;;1.77;1.00;;;;;;;24.37;48.69;98802.53;4909708;29;20513;-73
2021/06/24 12:30:29;;;;;;;0.93;0.90;;;;;;;23.90;48.99;98795.41;4910253;29;20032;-73
2021/06/24 12:32:57;;;;;;;1.10;1.00;;;;;;;24.01;50.34;98798.94;4909869;29;20028;-72
2021/06/24 12:35:46;;;;;;;2.28;0.90;;;;;;;24.09;49.82;98806.34;4909900;29;20055;-72
2021/06/24 12:38:25;;;;;;;3.27;1.00;;;;;;;24.70;50.10;98793.00;4909554;29;20031;-72
2021/06/24 12:40:57;;;;;;;1.00;1.00;;;;;;;24.03;49.90;98796.16;4910086;29;20087;-72
2021/06/24 12:43:27;;;;;;;1.70;0.90;;;;;;;24.59;50.83;98793.81;4907818;29;20422;-71
2021/06/24 12:46:00;;;;;;;1.38;1.13;;;;;;;25.13;50.28;98787.94;4909745;29;20103;-71
2021/06/24 12:48:27;;;;;;;2.60;0.80;;;;;;;24.50;50.83;98789.22;4909514;29;20520;-71
2021/06/24 12:50:54;;;;;;;2.63;0.93;;;;;;;24.84;49.87;98785.69;4909948;29;20043;-71
2021/06/24 12:53:35;;;;;;;1.20;1.10;;;;;;;24.09;50.68;98791.28;4909629;29;20040;-71
2021/06/24 12:56:02;;;;;;;1.52;1.05;;;;;;;24.92;49.12;98778.97;4909629;29;20035;-71
2021/06/24 12:58:27;;;;;;;1.40;0.73;;;;;;;24.54;50.54;98770.31;4909156;29;20028;-72
2021/06/24 13:01:16;;;;;;;1.00;1.00;;;;;;;25.21;49.67;98766.97;4909505;29;20043;-71
2021/06/24 13:03:44;;;;;;;2.63;1.08;;;;;;;25.40;48.43;98773.50;4909681;29;20055;-73
2021/06/24 13:06:18;;;;;;;1.95;1.00;;;;;;;25.75;47.60;98768.00;4909174;29;20028;-73
2021/06/24 13:09:15;;;;;;;1.08;1.00;;;;;;;26.10;47.75;98767.81;4909315;29;20036;-73
2021/06/24 13:11:49;;;;;;;1.60;1.10;;;;;;;25.48;48.72;98781.66;4909101;29;20095;-73
2021/06/24 13:14:16;;;;;;;4.43;1.02;;;;;;;25.48;50.04;98768.41;4909286;29;20032;-72
2021/06/24 13:16:48;;;;;;;1.10;1.00;;;;;;;26.11;49.04;98753.59;4908765;29;20486;-72
2021/06/24 13:19:22;;;;;;;2.15;1.05;;;;;;;25.37;49.18;98754.19;4909268;29;20671;-72
2021/06/24 13:21:55;;;;;;;2.00;1.17;;;;;;;25.11;50.28;98752.75;4908975;29;20079;-72
2021/06/24 13:24:21;;;;;;;0.98;0.98;;;;;;;25.09;50.19;98750.22;4899853;28;20134;-72
2021/06/24 13:26:46;;;;;;;3.97;1.25;;;;;;;25.74;48.72;98756.56;4915262;29;20078;-72
2021/06/24 13:29:23;;;;;;;3.42;0.90;;;;;;;25.88;47.85;98751.00;4916113;29;21351;-72
2021/06/24 13:31:53;;;;;;;0.95;0.95;;;;;;;26.27;48.00;98748.69;4915952;29;20032;-72
2021/06/24 13:34:19;;;;;;;2.92;2.30;;;;;;;26.54;44.07;98758.84;4916022;29;20039;-72
2021/06/24 13:36:45;;;;;;;0.75;0.65;;;;;;;26.33;43.46;98761.47;4915664;29;21468;-72
2021/06/24 13:39:19;;;;;;;1.42;0.73;;;;;;;26.06;42.40;98763.72;4915825;29;20414;-72
2021/06/24 13:41:46;;;;;;;1.42;0.90;;;;;;;25.97;44.81;98765.34;4916002;29;20042;-71
2021/06/24 13:44:17;;;;;;;1.75;1.10;;;;;;;25.80;44.63;98773.81;4915995;29;20461;-72
2021/06/24 13:46:45;;;;;;;2.03;0.90;;;;;;;25.84;45.86;98772.63;4915698;29;20449;-72
2021/06/24 13:49:12;;;;;;;0.80;0.80;;;;;;;26.06;44.14;98777.00;4915610;29;20594;-72
2021/06/24 13:51:38;;;;;;;4.47;1.05;;;;;;;26.22;43.07;98771.31;4915597;29;20032;-72
2021/06/24 13:54:05;;;;;;;0.68;0.68;;;;;;;26.16;43.86;98783.28;4914796;29;20103;-72
2021/06/24 13:56:31;;;;;;;0.77;0.77;;;;;;;25.95;44.15;98785.84;4915333;29;20032;-72
2021/06/24 13:58:57;;;;;;;1.48;0.70;;;;;;;25.81;42.86;98788.78;4915348;29;20040;-73
2021/06/24 14:01:27;;;;;;;1.45;0.75;;;;;;;25.20;44.41;98791.81;4915524;29;20036;-72
2021/06/24 14:03:52;;;;;;;2.53;0.80;;;;;;;24.63;46.17;98802.38;4915421;29;20028;-72
2021/06/24 14:06:19;;;;;;;1.52;0.90;;;;;;;23.73;52.76;98826.53;4915429;29;20031;-72
2021/06/24 14:08:45;;;;;;;1.33;1.00;;;;;;;23.23;59.33;98838.84;4915258;29;20074;-72
2021/06/24 14:11:14;;;;;;;3.28;1.45;;;;;;;22.50;68.06;98839.34;4915210;29;20122;-71
2021/06/24 14:13:44;;;;;;;5.37;1.83;;;;;;;21.29;76.50;98817.94;4915279;29;20023;-71
2021/06/24 14:16:13;;;;;;;5.82;2.15;;;;;;;20.35;83.14;98794.56;4915068;29;20032;-72
2021/06/24 14:18:42;;;;;;;2.70;1.52;;;;;;;20.16;82.74;98789.50;4915171;29;20460;-72
2021/06/24 14:21:13;;;;;;;2.80;1.45;;;;;;;20.12;79.81;98780.97;4915108;29;20038;-72
2021/06/24 14:23:39;;;;;;;3.10;1.35;;;;;;;20.20;80.73;98794.50;4914449;29;20486;-71
2021/06/24 14:26:05;;;;;;;5.03;1.73;;;;;;;19.95;81.05;98799.47;4914750;29;20049;-72
2021/06/24 14:28:32;;;;;;;5.65;1.73;;;;;;;19.90;83.06;98812.03;4914803;29;20051;-72
2021/06/24 14:30:57;;;;;;;4.63;1.52;;;;;;;20.07;88.89;98819.84;4915010;29;20714;-72
2021/06/24 14:33:23;;;;;;;2.47;1.48;;;;;;;20.43;83.73;98818.66;4914957;29;20028;-72
2021/06/24 14:35:49;;;;;;;1.48;1.10;;;;;;;20.83;81.49;98821.63;4914751;29;20379;-72
2021/06/24 14:38:14;;;;;;;3.28;1.63;;;;;;;21.19;83.99;98827.34;4913940;29;20099;-72
2021/06/24 14:40:40;;;;;;;6.25;1.48;;;;;;;21.39;83.10;98827.94;4914682;29;20036;-72
2021/06/24 14:43:05;;;;;;;1.48;1.38;;;;;;;21.65;80.02;98834.25;4914365;29;20036;-72
2021/06/24 14:45:30;;;;;;;3.53;1.80;;;;;;;21.57;79.19;98837.38;4914714;29;20028;-72
2021/06/24 14:47:56;;;;;;;2.50;1.40;;;;;;;21.33;81.15;98828.34;4914592;29;20095;-71
2021/06/24 14:50:21;;;;;;;4.53;1.48;;;;;;;21.39;83.57;98830.59;4914676;29;20123;-71
2021/06/24 14:52:48;;;;;;;3.53;1.65;;;;;;;21.54;82.47;98833.13;4914593;29;20059;-71
2021/06/24 14:55:14;;;;;;;1.45;1.35;;;;;;;21.95;79.77;98839.38;4914616;29;20051;-71
2021/06/24 14:57:39;;;;;;;5.65;1.05;;;;;;;21.94;74.51;98835.88;4914364;29;20075;-72
2021/06/24 15:00:07;;;;;;;1.73;1.20;;;;;;;21.60;81.87;98837.16;4914443;29;20031;-71
2021/06/24 15:02:32;;;;;;;1.67;0.88;;;;;;;21.48;75.79;98833.50;4914538;29;20043;-71
2021/06/24 15:04:58;;;;;;;1.65;1.00;;;;;;;20.56;78.96;98838.13;4914528;29;20058;-71
2021/06/24 15:07:23;;;;;;;4.30;1.17;;;;;;;21.22;76.48;98826.28;4913916;29;20113;-71
2021/06/24 15:09:48;;;;;;;2.45;1.30;;;;;;;22.06;76.38;98818.44;4914360;29;20064;-71
2021/06/24 15:12:15;;;;;;;5.20;1.08;;;;;;;22.64;70.86;98812.00;4914430;29;20773;-71
2021/06/24 15:14:40;;;;;;;0.93;0.93;;;;;;;22.92;70.47;98812.81;4913049;29;20036;-71
2021/06/24 15:17:06;;;;;;;1.63;1.27;;;;;;;22.90;67.49;98806.78;4914060;29;20043;-72
2021/06/24 15:19:31;;;;;;;1.15;1.05;;;;;;;23.39;63.42;98795.47;4914339;29;20034;-72
2021/06/24 15:21:56;;;;;;;0.75;0.75;;;;;;;23.44;61.48;98794.19;4914257;29;20378;-71
2021/06/24 15:24:22;;;;;;;4.15;1.13;;;;;;;23.46;63.18;98797.59;4914144;29;20544;-71
2021/06/24 15:26:48;;;;;;;0.93;0.70;;;;;;;24.01;62.75;98790.16;4914074;29;20106;-72
2021/06/24 15:29:13;;;;;;;1.08;0.90;;;;;;;24.61;59.87;98795.41;4914054;29;20397;-71
2021/06/24 15:31:40;;;;;;;5.40;1.00;;;;;;;24.99;58.39;98790.78;4914196;29;20043;-73
2021/06/24 15:34:06;;;;;;;2.90;0.95;;;;;;;24.67;59.39;98796.75;4914387;29;20031;-73
2021/06/24 15:36:32;;;;;;;1.35;1.00;;;;;;;23.31;62.16;98794.22;4913870;29;20028;-72
2021/06/24 15:38:57;;;;;;;1.70;1.10;;;;;;;22.61;63.98;98803.44;4914085;29;20469;-72
2021/06/24 15:41:22;;;;;;;0.90;0.90;;;;;;;22.39;66.14;98794.31;4914008;29;20035;-72
2021/06/24 15:43:48;;;;;;;7.03;1.15;;;;;;;21.93;70.10;98793.78;4914285;29;20063;-72
2021/06/24 15:46:13;;;;;;;1.02;1.00;;;;;;;22.19;69.58;98779.78;4913806;29;20154;-72
2021/06/24 15:48:38;;;;;;;3.10;1.17;;;;;;;22.07;68.53;98783.19;4914125;29;20490;-74
2021/06/24 15:51:04;;;;;;;7.70;1.48;;;;;;;22.11;70.66;98782.06;4914259;29;20478;-74
2021/06/24 15:53:30;;;;;;;2.17;1.00;;;;;;;21.06;68.75;98786.84;4913976;29;20063;-74
2021/06/24 15:55:55;;;;;;;1.10;1.00;;;;;;;22.07;67.29;98775.25;4913969;29;20445;-73
2021/06/24 15:58:21;;;;;;;0.77;0.75;;;;;;;21.94;66.10;98783.13;4913926;29;20028;-74
2021/06/24 16:00:47;;;;;;;1.85;0.90;;;;;;;21.71;67.79;98781.97;4913989;29;20138;-73
2021/06/24 16:03:12;;;;;;;1.35;1.23;;;;;;;21.76;68.40;98776.41;4913901;29;20046;-70
2021/06/24 16:05:38;;;;;;;2.70;0.80;;;;;;;21.91;66.55;98774.56;4913787;29;20107;-71